sensor_id;sensor_type;location;lat;lon;timestamp;pressure;altitude;pressure_sealevel;temperature;humidity
55685;BME280;41883;49.544;8.646;2023-04-06T00:00:22;100839.34;;;2.23;nan
55685;BME280;41883;49.544;8.646;2023-04-06T00:02:47;100824.31;;;2.26;nan
55685;BME280;41883;49.544;8.646;2023-04-06T00:05:13;100828.44;;;2.30;nan
55685;BME280;41883;49.544;8.646;2023-04-06T00:07:38;100825.38;;;2.38;nan
55685;BME280;41883;49.544;8.646;2023-04-06T00:10:04;100821.84;;;2.53;nan
55685;BME280;41883;49.544;8.646;2023-04-06T00:12:29;100821.09;;;2.66;nan
55685;BME280;41883;49.544;8.646;2023-04-06T00:14:55;100822.88;;;2.80;nan
55685;BME280;41883;49.544;8.646;2023-04-06T00:17:20;100816.78;;;2.93;nan
55685;BME280;41883;49.544;8.646;2023-04-06T00:19:45;100808.28;;;3.04;nan
55685;BME280;41883;49.544;8.646;2023-04-06T00:22:11;100810.31;;;3.13;nan
55685;BME280;41883;49.544;8.646;2023-04-06T00:24:36;100808.97;;;3.21;nan
55685;BME280;41883;49.544;8.646;2023-04-06T00:27:01;100813.91;;;3.25;nan
55685;BME280;41883;49.544;8.646;2023-04-06T00:29:27;100816.31;;;3.28;nan
55685;BME280;41883;49.544;8.646;2023-04-06T00:31:52;100800.78;;;3.27;nan
55685;BME280;41883;49.544;8.646;2023-04-06T00:34:17;100807.00;;;3.24;nan
55685;BME280;41883;49.544;8.646;2023-04-06T00:36:43;100806.66;;;3.16;nan
55685;BME280;41883;49.544;8.646;2023-04-06T00:39:08;100815.28;;;3.04;nan
55685;BME280;41883;49.544;8.646;2023-04-06T00:41:33;100809.25;;;2.89;nan
55685;BME280;41883;49.544;8.646;2023-04-06T00:43:59;100811.66;;;2.78;nan
55685;BME280;41883;49.544;8.646;2023-04-06T00:46:24;100804.41;;;2.68;nan
55685;BME280;41883;49.544;8.646;2023-04-06T00:48:49;100802.91;;;2.64;nan
55685;BME280;41883;49.544;8.646;2023-04-06T00:51:15;100807.00;;;2.54;nan
55685;BME280;41883;49.544;8.646;2023-04-06T00:53:40;100804.88;;;2.46;nan
55685;BME280;41883;49.544;8.646;2023-04-06T00:56:06;100800.22;;;2.37;nan
55685;BME280;41883;49.544;8.646;2023-04-06T00:58:31;100792.84;;;2.29;nan
55685;BME280;41883;49.544;8.646;2023-04-06T01:00:57;100791.44;;;2.24;nan
55685;BME280;41883;49.544;8.646;2023-04-06T01:03:23;100793.59;;;2.17;nan
55685;BME280;41883;49.544;8.646;2023-04-06T01:05:48;100784.59;;;2.07;nan
55685;BME280;41883;49.544;8.646;2023-04-06T01:08:14;100792.13;;;1.97;nan
55685;BME280;41883;49.544;8.646;2023-04-06T01:10:39;100796.03;;;1.90;nan
55685;BME280;41883;49.544;8.646;2023-04-06T01:13:05;100794.06;;;1.79;nan
55685;BME280;41883;49.544;8.646;2023-04-06T01:15:32;100791.41;;;1.65;nan
55685;BME280;41883;49.544;8.646;2023-04-06T01:17:58;100789.34;;;1.56;nan
55685;BME280;41883;49.544;8.646;2023-04-06T01:20:24;100790.69;;;1.47;nan
55685;BME280;41883;49.544;8.646;2023-04-06T01:22:49;100790.09;;;1.42;nan
55685;BME280;41883;49.544;8.646;2023-04-06T01:25:14;100780.13;;;1.34;nan
55685;BME280;41883;49.544;8.646;2023-04-06T01:27:40;100781.22;;;1.30;nan
55685;BME280;41883;49.544;8.646;2023-04-06T01:30:06;100782.16;;;1.29;nan
55685;BME280;41883;49.544;8.646;2023-04-06T01:32:32;100777.00;;;1.27;nan
55685;BME280;41883;49.544;8.646;2023-04-06T01:34:57;100781.41;;;1.27;nan
55685;BME280;41883;49.544;8.646;2023-04-06T01:37:22;100773.00;;;1.22;nan
55685;BME280;41883;49.544;8.646;2023-04-06T01:39:48;100778.88;;;1.10;nan
55685;BME280;41883;49.544;8.646;2023-04-06T01:42:13;100779.47;;;0.99;nan
55685;BME280;41883;49.544;8.646;2023-04-06T01:44:38;100773.94;;;0.89;nan
55685;BME280;41883;49.544;8.646;2023-04-06T01:47:04;100770.81;;;0.82;nan
55685;BME280;41883;49.544;8.646;2023-04-06T01:49:29;100773.84;;;0.75;nan
55685;BME280;41883;49.544;8.646;2023-04-06T01:51:54;100769.06;;;0.67;nan
55685;BME280;41883;49.544;8.646;2023-04-06T01:54:20;100767.47;;;0.65;nan
55685;BME280;41883;49.544;8.646;2023-04-06T01:56:45;100763.22;;;0.62;nan
55685;BME280;41883;49.544;8.646;2023-04-06T01:59:11;100760.72;;;0.60;nan
55685;BME280;41883;49.544;8.646;2023-04-06T02:01:36;100767.47;;;0.65;nan
55685;BME280;41883;49.544;8.646;2023-04-06T02:04:01;100764.75;;;0.66;nan
55685;BME280;41883;49.544;8.646;2023-04-06T02:06:27;100760.56;;;0.63;nan
55685;BME280;41883;49.544;8.646;2023-04-06T02:08:52;100760.91;;;0.57;nan
55685;BME280;41883;49.544;8.646;2023-04-06T02:11:17;100762.97;;;0.51;nan
55685;BME280;41883;49.544;8.646;2023-04-06T02:13:43;100759.09;;;0.42;nan
55685;BME280;41883;49.544;8.646;2023-04-06T02:16:08;100755.97;;;0.35;nan
55685;BME280;41883;49.544;8.646;2023-04-06T02:18:33;100751.69;;;0.34;nan
55685;BME280;41883;49.544;8.646;2023-04-06T02:20:59;100748.50;;;0.29;nan
55685;BME280;41883;49.544;8.646;2023-04-06T02:23:24;100745.22;;;0.26;nan
55685;BME280;41883;49.544;8.646;2023-04-06T02:25:49;100749.81;;;0.20;nan
55685;BME280;41883;49.544;8.646;2023-04-06T02:28:15;100743.84;;;0.18;nan
55685;BME280;41883;49.544;8.646;2023-04-06T02:30:40;100745.78;;;0.15;nan
55685;BME280;41883;49.544;8.646;2023-04-06T02:33:05;100749.38;;;0.12;nan
55685;BME280;41883;49.544;8.646;2023-04-06T02:35:31;100752.06;;;0.11;nan
55685;BME280;41883;49.544;8.646;2023-04-06T02:37:56;100741.72;;;0.09;nan
55685;BME280;41883;49.544;8.646;2023-04-06T02:40:22;100745.44;;;0.05;nan
55685;BME280;41883;49.544;8.646;2023-04-06T02:42:47;100746.56;;;-0.01;nan
55685;BME280;41883;49.544;8.646;2023-04-06T02:45:12;100749.41;;;-0.05;nan
55685;BME280;41883;49.544;8.646;2023-04-06T02:47:38;100747.78;;;-0.08;nan
55685;BME280;41883;49.544;8.646;2023-04-06T02:50:04;100750.50;;;-0.09;nan
55685;BME280;41883;49.544;8.646;2023-04-06T02:52:29;100752.00;;;-0.05;nan
55685;BME280;41883;49.544;8.646;2023-04-06T02:54:54;100748.50;;;-0.04;nan
55685;BME280;41883;49.544;8.646;2023-04-06T02:57:20;100752.38;;;0.05;nan
55685;BME280;41883;49.544;8.646;2023-04-06T02:59:45;100753.22;;;0.05;nan
55685;BME280;41883;49.544;8.646;2023-04-06T03:02:10;100752.28;;;0.06;nan
55685;BME280;41883;49.544;8.646;2023-04-06T03:04:36;100744.50;;;0.06;nan
55685;BME280;41883;49.544;8.646;2023-04-06T03:07:01;100750.06;;;0.16;nan
55685;BME280;41883;49.544;8.646;2023-04-06T03:09:26;100751.00;;;0.15;nan
55685;BME280;41883;49.544;8.646;2023-04-06T03:11:52;100752.75;;;0.14;nan
55685;BME280;41883;49.544;8.646;2023-04-06T03:14:17;100761.63;;;0.10;nan
55685;BME280;41883;49.544;8.646;2023-04-06T03:16:47;100761.25;;;0.01;nan
55685;BME280;41883;49.544;8.646;2023-04-06T03:19:12;100753.00;;;-0.08;nan
55685;BME280;41883;49.544;8.646;2023-04-06T03:21:37;100758.34;;;-0.11;nan
55685;BME280;41883;49.544;8.646;2023-04-06T03:24:03;100757.19;;;-0.05;nan
55685;BME280;41883;49.544;8.646;2023-04-06T03:26:29;100759.03;;;-0.07;nan
55685;BME280;41883;49.544;8.646;2023-04-06T03:28:54;100761.72;;;-0.09;nan
55685;BME280;41883;49.544;8.646;2023-04-06T03:31:19;100756.69;;;-0.12;nan
55685;BME280;41883;49.544;8.646;2023-04-06T03:33:45;100757.66;;;-0.14;nan
55685;BME280;41883;49.544;8.646;2023-04-06T03:36:10;100762.19;;;-0.18;nan
55685;BME280;41883;49.544;8.646;2023-04-06T03:38:36;100764.94;;;-0.21;nan
55685;BME280;41883;49.544;8.646;2023-04-06T03:41:01;100759.16;;;-0.26;nan
55685;BME280;41883;49.544;8.646;2023-04-06T03:43:26;100762.81;;;-0.30;nan
55685;BME280;41883;49.544;8.646;2023-04-06T03:45:52;100761.09;;;-0.31;nan
55685;BME280;41883;49.544;8.646;2023-04-06T03:48:17;100765.78;;;-0.38;nan
55685;BME280;41883;49.544;8.646;2023-04-06T03:50:42;100770.44;;;-0.45;nan
55685;BME280;41883;49.544;8.646;2023-04-06T03:53:07;100767.06;;;-0.47;nan
55685;BME280;41883;49.544;8.646;2023-04-06T03:55:33;100762.81;;;-0.48;nan
55685;BME280;41883;49.544;8.646;2023-04-06T03:57:59;100759.50;;;-0.51;nan
55685;BME280;41883;49.544;8.646;2023-04-06T04:00:24;100770.72;;;-0.51;nan
55685;BME280;41883;49.544;8.646;2023-04-06T04:02:50;100766.63;;;-0.55;nan
55685;BME280;41883;49.544;8.646;2023-04-06T04:05:15;100771.03;;;-0.57;nan
55685;BME280;41883;49.544;8.646;2023-04-06T04:07:41;100773.88;;;-0.61;nan
55685;BME280;41883;49.544;8.646;2023-04-06T04:10:07;100775.69;;;-0.63;nan
55685;BME280;41883;49.544;8.646;2023-04-06T04:12:32;100769.72;;;-0.66;nan
55685;BME280;41883;49.544;8.646;2023-04-06T04:14:57;100777.66;;;-0.69;nan
55685;BME280;41883;49.544;8.646;2023-04-06T04:17:24;100785.69;;;-0.73;nan
55685;BME280;41883;49.544;8.646;2023-04-06T04:19:50;100781.47;;;-0.76;nan
55685;BME280;41883;49.544;8.646;2023-04-06T04:22:15;100783.09;;;-0.73;nan
55685;BME280;41883;49.544;8.646;2023-04-06T04:24:40;100785.69;;;-0.73;nan
55685;BME280;41883;49.544;8.646;2023-04-06T04:27:05;100798.66;;;-0.73;nan
55685;BME280;41883;49.544;8.646;2023-04-06T04:29:31;100783.84;;;-0.71;nan
55685;BME280;41883;49.544;8.646;2023-04-06T04:31:56;100793.38;;;-0.72;nan
55685;BME280;41883;49.544;8.646;2023-04-06T04:34:22;100794.25;;;-0.71;nan
55685;BME280;41883;49.544;8.646;2023-04-06T04:36:50;100791.44;;;-0.67;nan
55685;BME280;41883;49.544;8.646;2023-04-06T04:39:15;100792.16;;;-0.65;nan
55685;BME280;41883;49.544;8.646;2023-04-06T04:41:41;100792.09;;;-0.63;nan
55685;BME280;41883;49.544;8.646;2023-04-06T04:44:06;100797.13;;;-0.60;nan
55685;BME280;41883;49.544;8.646;2023-04-06T04:46:31;100798.91;;;-0.60;nan
55685;BME280;41883;49.544;8.646;2023-04-06T04:48:57;100797.06;;;-0.58;nan
55685;BME280;41883;49.544;8.646;2023-04-06T04:51:22;100799.75;;;-0.60;nan
55685;BME280;41883;49.544;8.646;2023-04-06T04:53:49;100801.34;;;-0.57;nan
55685;BME280;41883;49.544;8.646;2023-04-06T04:56:14;100793.56;;;-0.57;nan
55685;BME280;41883;49.544;8.646;2023-04-06T04:58:40;100795.31;;;-0.58;nan
55685;BME280;41883;49.544;8.646;2023-04-06T05:01:05;100804.94;;;-0.60;nan
55685;BME280;41883;49.544;8.646;2023-04-06T05:03:32;100802.34;;;-0.60;nan
55685;BME280;41883;49.544;8.646;2023-04-06T05:05:58;100805.03;;;-0.61;nan
55685;BME280;41883;49.544;8.646;2023-04-06T05:08:23;100805.16;;;-0.65;nan
55685;BME280;41883;49.544;8.646;2023-04-06T05:10:49;100806.91;;;-0.65;nan
55685;BME280;41883;49.544;8.646;2023-04-06T05:13:14;100808.53;;;-0.62;nan
55685;BME280;41883;49.544;8.646;2023-04-06T05:15:40;100805.84;;;-0.61;nan
55685;BME280;41883;49.544;8.646;2023-04-06T05:18:06;100816.03;;;-0.56;nan
55685;BME280;41883;49.544;8.646;2023-04-06T05:20:32;100812.44;;;-0.54;nan
55685;BME280;41883;49.544;8.646;2023-04-06T05:22:57;100811.28;;;-0.48;nan
55685;BME280;41883;49.544;8.646;2023-04-06T05:25:23;100812.69;;;-0.41;nan
55685;BME280;41883;49.544;8.646;2023-04-06T05:27:49;100818.50;;;-0.36;nan
55685;BME280;41883;49.544;8.646;2023-04-06T05:30:14;100811.41;;;-0.32;nan
55685;BME280;41883;49.544;8.646;2023-04-06T05:32:40;100814.69;;;-0.29;nan
55685;BME280;41883;49.544;8.646;2023-04-06T05:35:05;100816.81;;;-0.19;nan
55685;BME280;41883;49.544;8.646;2023-04-06T05:37:31;100820.56;;;-0.08;nan
55685;BME280;41883;49.544;8.646;2023-04-06T05:39:56;100819.97;;;0.05;nan
55685;BME280;41883;49.544;8.646;2023-04-06T05:42:22;100823.69;;;0.16;nan
55685;BME280;41883;49.544;8.646;2023-04-06T05:44:47;100814.38;;;0.30;nan
55685;BME280;41883;49.544;8.646;2023-04-06T05:47:13;100822.13;;;0.47;nan
55685;BME280;41883;49.544;8.646;2023-04-06T05:49:38;100814.13;;;0.68;nan
55685;BME280;41883;49.544;8.646;2023-04-06T05:52:04;100820.97;;;0.86;nan
55685;BME280;41883;49.544;8.646;2023-04-06T05:54:29;100817.34;;;1.04;nan
55685;BME280;41883;49.544;8.646;2023-04-06T05:56:55;100819.09;;;1.36;nan
55685;BME280;41883;49.544;8.646;2023-04-06T05:59:20;100819.38;;;1.77;nan
55685;BME280;41883;49.544;8.646;2023-04-06T06:01:45;100807.28;;;2.21;nan
55685;BME280;41883;49.544;8.646;2023-04-06T06:04:11;100818.22;;;2.56;nan
55685;BME280;41883;49.544;8.646;2023-04-06T06:06:36;100817.16;;;2.87;nan
55685;BME280;41883;49.544;8.646;2023-04-06T06:09:02;100816.63;;;3.24;nan
55685;BME280;41883;49.544;8.646;2023-04-06T06:11:28;100816.16;;;3.58;nan
55685;BME280;41883;49.544;8.646;2023-04-06T06:13:54;100814.06;;;4.03;nan
55685;BME280;41883;49.544;8.646;2023-04-06T06:16:20;100816.59;;;4.43;nan
55685;BME280;41883;49.544;8.646;2023-04-06T06:18:45;100821.81;;;4.82;nan
55685;BME280;41883;49.544;8.646;2023-04-06T06:21:11;100820.09;;;5.30;nan
55685;BME280;41883;49.544;8.646;2023-04-06T06:23:41;100824.66;;;5.64;nan
55685;BME280;41883;49.544;8.646;2023-04-06T06:26:06;100817.09;;;5.83;nan
55685;BME280;41883;49.544;8.646;2023-04-06T06:28:32;100821.31;;;6.21;nan
55685;BME280;41883;49.544;8.646;2023-04-06T06:30:57;100825.19;;;6.73;nan
55685;BME280;41883;49.544;8.646;2023-04-06T06:33:23;100815.91;;;7.24;nan
55685;BME280;41883;49.544;8.646;2023-04-06T06:35:49;100815.06;;;7.67;nan
55685;BME280;41883;49.544;8.646;2023-04-06T06:38:15;100821.25;;;7.98;nan
55685;BME280;41883;49.544;8.646;2023-04-06T06:40:40;100816.25;;;8.16;nan
55685;BME280;41883;49.544;8.646;2023-04-06T06:43:06;100814.66;;;8.25;nan
55685;BME280;41883;49.544;8.646;2023-04-06T06:45:31;100811.34;;;8.44;nan
55685;BME280;41883;49.544;8.646;2023-04-06T06:47:57;100814.09;;;8.73;nan
55685;BME280;41883;49.544;8.646;2023-04-06T06:50:22;100822.91;;;8.93;nan
55685;BME280;41883;49.544;8.646;2023-04-06T06:52:47;100817.41;;;9.06;nan
55685;BME280;41883;49.544;8.646;2023-04-06T06:55:13;100815.06;;;9.22;nan
55685;BME280;41883;49.544;8.646;2023-04-06T06:57:38;100818.28;;;9.45;nan
55685;BME280;41883;49.544;8.646;2023-04-06T07:00:05;100810.78;;;9.70;nan
55685;BME280;41883;49.544;8.646;2023-04-06T07:02:31;100822.88;;;9.72;nan
55685;BME280;41883;49.544;8.646;2023-04-06T07:04:56;100816.63;;;9.93;nan
55685;BME280;41883;49.544;8.646;2023-04-06T07:07:22;100818.41;;;10.21;nan
55685;BME280;41883;49.544;8.646;2023-04-06T07:09:47;100815.34;;;10.36;nan
55685;BME280;41883;49.544;8.646;2023-04-06T07:12:12;100814.34;;;10.47;nan
55685;BME280;41883;49.544;8.646;2023-04-06T07:14:37;100815.41;;;10.63;nan
55685;BME280;41883;49.544;8.646;2023-04-06T07:17:03;100824.16;;;10.64;nan
55685;BME280;41883;49.544;8.646;2023-04-06T07:19:28;100808.34;;;10.82;nan
55685;BME280;41883;49.544;8.646;2023-04-06T07:21:54;100814.00;;;10.97;nan
55685;BME280;41883;49.544;8.646;2023-04-06T07:24:19;100815.72;;;11.16;nan
55685;BME280;41883;49.544;8.646;2023-04-06T07:26:45;100817.16;;;11.46;nan
55685;BME280;41883;49.544;8.646;2023-04-06T07:29:10;100819.47;;;11.59;nan
55685;BME280;41883;49.544;8.646;2023-04-06T07:31:35;100818.38;;;11.69;nan
55685;BME280;41883;49.544;8.646;2023-04-06T07:34:01;100814.16;;;11.95;nan
55685;BME280;41883;49.544;8.646;2023-04-06T07:36:26;100817.91;;;12.28;nan
55685;BME280;41883;49.544;8.646;2023-04-06T07:38:52;100818.13;;;12.69;nan
55685;BME280;41883;49.544;8.646;2023-04-06T07:41:17;100816.25;;;12.95;nan
55685;BME280;41883;49.544;8.646;2023-04-06T07:43:43;100808.19;;;13.22;nan
55685;BME280;41883;49.544;8.646;2023-04-06T07:46:08;100817.88;;;13.39;nan
55685;BME280;41883;49.544;8.646;2023-04-06T07:48:33;100810.59;;;13.33;nan
55685;BME280;41883;49.544;8.646;2023-04-06T07:51:03;100820.88;;;13.28;nan
55685;BME280;41883;49.544;8.646;2023-04-06T07:53:29;100814.47;;;13.12;nan
55685;BME280;41883;49.544;8.646;2023-04-06T07:55:54;100819.25;;;13.01;nan
55685;BME280;41883;49.544;8.646;2023-04-06T07:58:20;100819.56;;;12.98;nan
55685;BME280;41883;49.544;8.646;2023-04-06T08:00:46;100814.81;;;13.09;nan
55685;BME280;41883;49.544;8.646;2023-04-06T08:03:11;100820.06;;;13.35;nan
55685;BME280;41883;49.544;8.646;2023-04-06T08:05:36;100821.94;;;13.84;nan
55685;BME280;41883;49.544;8.646;2023-04-06T08:08:02;100822.75;;;14.01;nan
55685;BME280;41883;49.544;8.646;2023-04-06T08:10:27;100830.38;;;14.29;nan
55685;BME280;41883;49.544;8.646;2023-04-06T08:12:53;100825.53;;;14.32;nan
55685;BME280;41883;49.544;8.646;2023-04-06T08:15:18;100829.38;;;14.38;nan
55685;BME280;41883;49.544;8.646;2023-04-06T08:17:44;100824.06;;;14.38;nan
55685;BME280;41883;49.544;8.646;2023-04-06T08:20:09;100828.38;;;14.47;nan
55685;BME280;41883;49.544;8.646;2023-04-06T08:22:35;100828.72;;;15.00;nan
55685;BME280;41883;49.544;8.646;2023-04-06T08:25:00;100822.47;;;15.47;nan
55685;BME280;41883;49.544;8.646;2023-04-06T08:27:25;100819.13;;;15.76;nan
55685;BME280;41883;49.544;8.646;2023-04-06T08:29:51;100820.47;;;15.95;nan
55685;BME280;41883;49.544;8.646;2023-04-06T08:32:16;100821.06;;;16.20;nan
55685;BME280;41883;49.544;8.646;2023-04-06T08:34:42;100817.31;;;16.29;nan
55685;BME280;41883;49.544;8.646;2023-04-06T08:37:07;100821.28;;;16.19;nan
55685;BME280;41883;49.544;8.646;2023-04-06T08:39:32;100823.56;;;16.22;nan
55685;BME280;41883;49.544;8.646;2023-04-06T08:41:59;100820.16;;;16.28;nan
55685;BME280;41883;49.544;8.646;2023-04-06T08:44:28;100826.91;;;16.53;nan
55685;BME280;41883;49.544;8.646;2023-04-06T08:46:54;100811.84;;;16.90;nan
55685;BME280;41883;49.544;8.646;2023-04-06T08:49:20;100821.06;;;17.24;nan
55685;BME280;41883;49.544;8.646;2023-04-06T08:51:46;100816.06;;;17.36;nan
55685;BME280;41883;49.544;8.646;2023-04-06T08:54:12;100811.81;;;17.63;nan
55685;BME280;41883;49.544;8.646;2023-04-06T08:56:38;100812.28;;;17.88;nan
55685;BME280;41883;49.544;8.646;2023-04-06T08:59:05;100814.78;;;17.75;nan
55685;BME280;41883;49.544;8.646;2023-04-06T09:01:33;100810.00;;;17.49;nan
55685;BME280;41883;49.544;8.646;2023-04-06T09:04:03;100806.66;;;17.40;nan
55685;BME280;41883;49.544;8.646;2023-04-06T09:06:34;100807.75;;;17.67;nan
55685;BME280;41883;49.544;8.646;2023-04-06T09:08:59;100802.06;;;17.77;nan
55685;BME280;41883;49.544;8.646;2023-04-06T09:11:24;100807.75;;;17.67;nan
55685;BME280;41883;49.544;8.646;2023-04-06T09:13:52;100808.97;;;17.86;nan
55685;BME280;41883;49.544;8.646;2023-04-06T09:16:18;100811.16;;;18.04;nan
55685;BME280;41883;49.544;8.646;2023-04-06T09:18:44;100811.91;;;18.19;nan
55685;BME280;41883;49.544;8.646;2023-04-06T09:21:10;100813.03;;;18.66;nan
55685;BME280;41883;49.544;8.646;2023-04-06T09:23:36;100807.47;;;19.16;nan
55685;BME280;41883;49.544;8.646;2023-04-06T09:26:16;100811.88;;;19.37;nan
55685;BME280;41883;49.544;8.646;2023-04-06T09:28:55;100801.47;;;19.69;nan
55685;BME280;41883;49.544;8.646;2023-04-06T09:31:25;100800.63;;;20.02;nan
55685;BME280;41883;49.544;8.646;2023-04-06T09:33:51;100794.19;;;20.16;nan
55685;BME280;41883;49.544;8.646;2023-04-06T09:36:29;100803.88;;;20.37;nan
55685;BME280;41883;49.544;8.646;2023-04-06T09:38:59;100804.31;;;20.34;nan
55685;BME280;41883;49.544;8.646;2023-04-06T09:41:27;100797.06;;;20.41;nan
55685;BME280;41883;49.544;8.646;2023-04-06T09:44:05;100805.56;;;20.31;nan
55685;BME280;41883;49.544;8.646;2023-04-06T09:46:32;100808.19;;;20.65;nan
55685;BME280;41883;49.544;8.646;2023-04-06T09:49:00;100798.66;;;21.20;nan
55685;BME280;41883;49.544;8.646;2023-04-06T09:51:30;100791.50;;;21.71;nan
55685;BME280;41883;49.544;8.646;2023-04-06T09:53:56;100803.88;;;22.04;nan
55685;BME280;41883;49.544;8.646;2023-04-06T09:56:28;100796.19;;;21.82;nan
55685;BME280;41883;49.544;8.646;2023-04-06T09:59:02;100797.38;;;21.93;nan
55685;BME280;41883;49.544;8.646;2023-04-06T10:01:29;100795.00;;;22.29;nan
55685;BME280;41883;49.544;8.646;2023-04-06T10:04:05;100801.00;;;22.49;nan
55685;BME280;41883;49.544;8.646;2023-04-06T10:06:34;100793.81;;;22.43;nan
55685;BME280;41883;49.544;8.646;2023-04-06T10:09:02;100792.00;;;22.37;nan
55685;BME280;41883;49.544;8.646;2023-04-06T10:11:30;100799.78;;;22.26;nan
55685;BME280;41883;49.544;8.646;2023-04-06T10:14:01;100793.44;;;22.58;nan
55685;BME280;41883;49.544;8.646;2023-04-06T10:16:27;100790.22;;;22.86;nan
55685;BME280;41883;49.544;8.646;2023-04-06T10:19:02;100792.59;;;23.13;nan
55685;BME280;41883;49.544;8.646;2023-04-06T10:21:31;100791.38;;;23.08;nan
55685;BME280;41883;49.544;8.646;2023-04-06T10:23:59;100788.03;;;23.55;nan
55685;BME280;41883;49.544;8.646;2023-04-06T10:26:25;100788.47;;;23.52;nan
55685;BME280;41883;49.544;8.646;2023-04-06T10:28:54;100774.94;;;23.82;nan
55685;BME280;41883;49.544;8.646;2023-04-06T10:31:24;100785.38;;;23.67;nan
55685;BME280;41883;49.544;8.646;2023-04-06T10:34:01;100779.69;;;23.57;nan
55685;BME280;41883;49.544;8.646;2023-04-06T10:36:36;100780.25;;;23.89;nan
55685;BME280;41883;49.544;8.646;2023-04-06T10:39:05;100774.59;;;24.14;nan
55685;BME280;41883;49.544;8.646;2023-04-06T10:41:33;100783.47;;;23.25;nan
55685;BME280;41883;49.544;8.646;2023-04-06T10:43:59;100782.91;;;23.35;nan
55685;BME280;41883;49.544;8.646;2023-04-06T10:46:28;100782.63;;;23.13;nan
55685;BME280;41883;49.544;8.646;2023-04-06T10:48:53;100786.94;;;23.14;nan
55685;BME280;41883;49.544;8.646;2023-04-06T10:51:24;100777.16;;;23.01;nan
55685;BME280;41883;49.544;8.646;2023-04-06T10:53:53;100770.97;;;23.01;nan
55685;BME280;41883;49.544;8.646;2023-04-06T10:56:22;100773.97;;;23.23;nan
55685;BME280;41883;49.544;8.646;2023-04-06T10:58:50;100773.63;;;23.31;nan
55685;BME280;41883;49.544;8.646;2023-04-06T11:01:20;100768.53;;;23.53;nan
55685;BME280;41883;49.544;8.646;2023-04-06T11:03:47;100769.09;;;23.97;nan
55685;BME280;41883;49.544;8.646;2023-04-06T11:06:19;100759.06;;;24.45;nan
55685;BME280;41883;49.544;8.646;2023-04-06T11:08:45;100755.53;;;24.56;nan
55685;BME280;41883;49.544;8.646;2023-04-06T11:11:13;100756.47;;;24.50;nan
55685;BME280;41883;49.544;8.646;2023-04-06T11:13:42;100754.34;;;24.64;nan
55685;BME280;41883;49.544;8.646;2023-04-06T11:16:21;100750.88;;;24.16;nan
55685;BME280;41883;49.544;8.646;2023-04-06T11:18:51;100741.72;;;24.29;nan
55685;BME280;41883;49.544;8.646;2023-04-06T11:21:17;100749.22;;;24.50;nan
55685;BME280;41883;49.544;8.646;2023-04-06T11:23:43;100738.13;;;24.92;nan
55685;BME280;41883;49.544;8.646;2023-04-06T11:26:12;100736.06;;;24.83;nan
55685;BME280;41883;49.544;8.646;2023-04-06T11:28:39;100729.94;;;24.35;nan
55685;BME280;41883;49.544;8.646;2023-04-06T11:31:05;100724.66;;;23.69;nan
55685;BME280;41883;49.544;8.646;2023-04-06T11:33:35;100721.38;;;23.67;nan
55685;BME280;41883;49.544;8.646;2023-04-06T11:36:01;100729.94;;;23.10;nan
55685;BME280;41883;49.544;8.646;2023-04-06T11:38:27;100720.41;;;23.50;nan
55685;BME280;41883;49.544;8.646;2023-04-06T11:40:58;100717.63;;;23.68;nan
55685;BME280;41883;49.544;8.646;2023-04-06T11:43:30;100717.75;;;23.85;nan
55685;BME280;41883;49.544;8.646;2023-04-06T11:46:00;100711.22;;;22.97;nan
55685;BME280;41883;49.544;8.646;2023-04-06T11:48:27;100704.28;;;22.41;nan
55685;BME280;41883;49.544;8.646;2023-04-06T11:50:58;100704.69;;;21.26;nan
55685;BME280;41883;49.544;8.646;2023-04-06T11:53:28;100711.22;;;19.94;nan
55685;BME280;41883;49.544;8.646;2023-04-06T11:55:54;100715.91;;;19.06;nan
55685;BME280;41883;49.544;8.646;2023-04-06T11:58:20;100713.22;;;18.51;nan
55685;BME280;41883;49.544;8.646;2023-04-06T12:00:45;100706.88;;;18.17;nan
55685;BME280;41883;49.544;8.646;2023-04-06T12:03:12;100704.47;;;17.94;nan
55685;BME280;41883;49.544;8.646;2023-04-06T12:05:37;100693.91;;;18.14;nan
55685;BME280;41883;49.544;8.646;2023-04-06T12:08:03;100700.81;;;18.37;nan
55685;BME280;41883;49.544;8.646;2023-04-06T12:10:28;100694.84;;;18.41;nan
55685;BME280;41883;49.544;8.646;2023-04-06T12:12:54;100689.50;;;18.89;nan
55685;BME280;41883;49.544;8.646;2023-04-06T12:15:19;100682.69;;;18.87;nan
55685;BME280;41883;49.544;8.646;2023-04-06T12:17:45;100690.13;;;18.98;nan
55685;BME280;41883;49.544;8.646;2023-04-06T12:20:11;100685.78;;;18.91;nan
55685;BME280;41883;49.544;8.646;2023-04-06T12:22:36;100679.78;;;18.82;nan
55685;BME280;41883;49.544;8.646;2023-04-06T12:25:02;100680.31;;;18.57;nan
55685;BME280;41883;49.544;8.646;2023-04-06T12:27:27;100678.72;;;18.28;nan
55685;BME280;41883;49.544;8.646;2023-04-06T12:29:53;100680.78;;;18.26;nan
55685;BME280;41883;49.544;8.646;2023-04-06T12:32:19;100681.25;;;17.95;nan
55685;BME280;41883;49.544;8.646;2023-04-06T12:34:44;100670.38;;;17.75;nan
55685;BME280;41883;49.544;8.646;2023-04-06T12:37:09;100676.63;;;17.60;nan
55685;BME280;41883;49.544;8.646;2023-04-06T12:39:35;100668.09;;;17.72;nan
55685;BME280;41883;49.544;8.646;2023-04-06T12:42:01;100672.41;;;17.73;nan
55685;BME280;41883;49.544;8.646;2023-04-06T12:44:27;100669.16;;;17.77;nan
55685;BME280;41883;49.544;8.646;2023-04-06T12:46:53;100664.44;;;17.51;nan
55685;BME280;41883;49.544;8.646;2023-04-06T12:49:18;100662.94;;;17.20;nan
55685;BME280;41883;49.544;8.646;2023-04-06T12:51:44;100659.59;;;17.12;nan
55685;BME280;41883;49.544;8.646;2023-04-06T12:54:10;100660.34;;;17.06;nan
55685;BME280;41883;49.544;8.646;2023-04-06T12:56:37;100653.53;;;17.25;nan
55685;BME280;41883;49.544;8.646;2023-04-06T12:59:02;100652.31;;;17.27;nan
55685;BME280;41883;49.544;8.646;2023-04-06T13:01:28;100656.44;;;17.30;nan
55685;BME280;41883;49.544;8.646;2023-04-06T13:03:53;100646.56;;;17.30;nan
55685;BME280;41883;49.544;8.646;2023-04-06T13:06:19;100652.06;;;17.22;nan
55685;BME280;41883;49.544;8.646;2023-04-06T13:08:44;100647.47;;;16.94;nan